Time;durP1;ratioP1;P1;durP2;ratioP2;P2;SDS_P1;SDS_P2;PMS_P1;PMS_P2;Temp;Humidity;BMP_temperature;BMP_pressure;BME280_temperature;BME280_humidity;BME280_pressure;Samples;Min_cycle;Max_cycle;Signal;HPM_P1;HPM_P2
2022/05/31 00:00:17;;;;;;;;;;;;;;;7.75;100.00;95471.66;1033134;28;19936;-74
2022/05/31 00:00:47;;;;;;;;;;;;;;;7.75;100.00;95463.84;1030725;28;20421;-74
2022/05/31 00:01:17;;;;;;;;;;;;;;;7.74;100.00;95467.47;1023120;28;19910;-75
2022/05/31 00:01:48;;;;;;;;;;;;;;;7.73;100.00;95469.28;1031342;28;20071;-75
2022/05/31 00:02:19;;;;;;;;;;;;;;;7.71;100.00;95471.38;1031075;28;20298;-75
2022/05/31 00:02:50;;;;;;;;;;;;;;;7.71;100.00;95466.16;1026908;28;20401;-75
2022/05/31 00:03:20;;;;;;;;;;;;;;;7.71;100.00;95463.56;1029085;28;19913;-73
2022/05/31 00:03:50;;;;;;;;;;;;;;;7.71;100.00;95468.78;1027143;28;19917;-74
2022/05/31 00:04:20;;;;;;;;;;;;;;;7.70;100.00;95463.78;1030872;28;19912;-75
2022/05/31 00:04:51;;;;;;;;;;;;;;;7.70;100.00;95467.19;1034026;28;19937;-72
2022/05/31 00:05:21;;;;;;;;;;;;;;;7.69;100.00;95465.63;1029316;28;19910;-72
2022/05/31 00:05:51;;;;;;;;;;;;;;;7.68;100.00;95474.50;1031109;28;19917;-72
2022/05/31 00:06:22;;;;;;;;;;;;;;;7.67;100.00;95470.28;1022939;28;19915;-75
2022/05/31 00:06:52;;;;;;;;;;;;;;;7.66;100.00;95473.16;1025836;28;19915;-73
2022/05/31 00:07:22;;;;;;;;;;;;;;;7.66;100.00;95468.72;1027003;28;19918;-75
2022/05/31 00:07:53;;;;;;;;;;;;;;;7.66;100.00;95471.34;1035172;28;20093;-75
2022/05/31 00:08:23;;;;;;;;;;;;;;;7.65;100.00;95469.78;1035239;28;20404;-75
2022/05/31 00:08:53;;;;;;;;;;;;;;;7.63;100.00;95469.22;1030539;28;20370;-75
2022/05/31 00:09:24;;;;;;;;;;;;;;;7.63;100.00;95474.44;1027307;28;20090;-74
2022/05/31 00:09:54;;;;;;;;;;;;;;;7.63;100.00;95474.44;1031161;28;19977;-74
2022/05/31 00:10:24;;;;;;;;;;;;;;;7.64;100.00;95468.19;1031054;28;19925;-74
2022/05/31 00:10:54;;;;;;;;;;;;;;;7.65;100.00;95466.38;1028295;28;20318;-74
2022/05/31 00:11:25;;;;;;;;;;;;;;;7.63;100.00;95466.59;1026571;28;19929;-74
2022/05/31 00:11:57;;;;;;;;;;;;;;;7.61;100.00;95460.84;1024784;28;19965;-75
2022/05/31 00:12:27;;;;;;;;;;;;;;;7.63;100.00;95465.81;1024339;28;19966;-74
2022/05/31 00:12:57;;;;;;;;;;;;;;;7.63;100.00;95464.00;1023697;28;20364;-75
2022/05/31 00:13:28;;;;;;;;;;;;;;;7.61;100.00;95463.44;1027807;28;20016;-74
2022/05/31 00:13:58;;;;;;;;;;;;;;;7.61;100.00;95460.84;1033265;28;19969;-74
2022/05/31 00:14:28;;;;;;;;;;;;;;;7.61;100.00;95468.66;1027510;28;19914;-74
2022/05/31 00:14:59;;;;;;;;;;;;;;;7.57;100.00;95460.56;1031288;28;20009;-75
2022/05/31 00:15:29;;;;;;;;;;;;;;;7.57;100.00;95460.56;1034445;28;19910;-74
2022/05/31 00:16:00;;;;;;;;;;;;;;;7.57;100.00;95470.22;1035198;28;19917;-75
2022/05/31 00:16:30;;;;;;;;;;;;;;;7.55;100.00;95467.09;1032270;28;19914;-74
2022/05/31 00:17:01;;;;;;;;;;;;;;;7.56;100.00;95463.44;1034895;28;19910;-72
2022/05/31 00:17:32;;;;;;;;;;;;;;;7.56;100.00;95464.22;1030976;28;19922;-73
2022/05/31 00:18:02;;;;;;;;;;;;;;;7.57;100.00;95462.38;1039259;28;20374;-72
2022/05/31 00:18:32;;;;;;;;;;;;;;;7.57;100.00;95467.59;1038915;28;20337;-72
2022/05/31 00:19:03;;;;;;;;;;;;;;;7.55;100.00;95460.03;1038548;28;19968;-72
2022/05/31 00:19:33;;;;;;;;;;;;;;;7.58;100.00;95466.59;1038943;28;19917;-73
2022/05/31 00:20:04;;;;;;;;;;;;;;;7.56;100.00;95468.66;1039100;28;19910;-72
2022/05/31 00:20:34;;;;;;;;;;;;;;;7.56;100.00;95456.38;1030687;28;19916;-73
2022/05/31 00:21:05;;;;;;;;;;;;;;;7.59;100.00;95462.94;1031125;28;19921;-73
2022/05/31 00:21:44;;;;;;;;;;;;;;;7.61;100.00;95457.44;1027170;28;19932;-73
2022/05/31 00:22:15;;;;;;;;;;;;;;;7.62;100.00;95465.03;1035034;28;19914;-72
2022/05/31 00:22:45;;;;;;;;;;;;;;;7.61;100.00;95458.22;1038344;28;19914;-73
2022/05/31 00:23:15;;;;;;;;;;;;;;;7.59;100.00;95457.72;1037805;28;19952;-72
2022/05/31 00:23:46;;;;;;;;;;;;;;;7.59;100.00;95462.94;1036038;28;19905;-75
2022/05/31 00:24:19;;;;;;;;;;;;;;;7.58;100.00;95458.75;1031949;28;19929;-72
2022/05/31 00:24:52;;;;;;;;;;;;;;;7.59;100.00;95464.75;1024624;28;19910;-73
2022/05/31 00:25:22;;;;;;;;;;;;;;;7.59;100.00;95467.38;1029044;28;19938;-73
2022/05/31 00:25:52;;;;;;;;;;;;;;;7.57;100.00;95459.78;1036739;28;19914;-73
2022/05/31 00:26:23;;;;;;;;;;;;;;;7.56;100.00;95471.25;1040691;28;19909;-73
2022/05/31 00:26:53;;;;;;;;;;;;;;;7.56;100.00;95471.25;1043868;28;19913;-73
2022/05/31 00:27:23;;;;;;;;;;;;;;;7.55;100.00;95461.84;1039283;28;19913;-74
2022/05/31 00:27:54;;;;;;;;;;;;;;;7.55;100.00;95467.09;1034152;28;19963;-72
2022/05/31 00:28:24;;;;;;;;;;;;;;;7.55;100.00;95469.69;1030553;28;19925;-73
2022/05/31 00:28:54;;;;;;;;;;;;;;;7.54;100.00;95470.72;1035239;28;20374;-73
2022/05/31 00:29:25;;;;;;;;;;;;;;;7.53;100.00;95471.75;1035312;28;19965;-73
2022/05/31 00:29:55;;;;;;;;;;;;;;;7.52;100.00;95476.19;1035321;28;20353;-73
2022/05/31 00:30:25;;;;;;;;;;;;;;;7.51;100.00;95471.22;1035428;28;19931;-72
2022/05/31 00:30:56;;;;;;;;;;;;;;;7.51;100.00;95472.00;1031157;28;19914;-73
2022/05/31 00:31:26;;;;;;;;;;;;;;;7.51;100.00;95471.22;1034680;28;19910;-71
2022/05/31 00:31:57;;;;;;;;;;;;;;;7.49;100.00;95473.28;1036542;28;19976;-73
2022/05/31 00:32:33;;;;;;;;;;;;;;;7.48;100.00;95475.13;1034305;28;19965;-73
2022/05/31 00:33:06;;;;;;;;;;;;;;;7.47;100.00;95477.97;1035318;28;19910;-73
2022/05/31 00:33:37;;;;;;;;;;;;;;;7.45;100.00;95477.44;1031084;28;19913;-75
2022/05/31 00:34:07;;;;;;;;;;;;;;;7.44;100.00;95478.47;1034010;28;19914;-74
2022/05/31 00:34:38;;;;;;;;;;;;;;;7.40;100.00;95464.34;1030657;28;19967;-73
2022/05/31 00:35:29;;;;;;;;;;;;;;;7.41;100.00;95468.50;1026633;28;19911;-74
2022/05/31 00:35:59;;;;;;;;;;;;;;;7.39;100.00;95481.81;1032200;28;20350;-74
2022/05/31 00:36:30;;;;;;;;;;;;;;;7.37;100.00;95477.88;1037628;28;19912;-74
2022/05/31 00:37:00;;;;;;;;;;;;;;;7.35;100.00;95472.13;1040674;28;19940;-74
2022/05/31 00:37:31;;;;;;;;;;;;;;;7.31;100.00;95469.25;1034449;28;19917;-74
2022/05/31 00:38:05;;;;;;;;;;;;;;;7.28;100.00;95470.53;1030512;28;19910;-75
2022/05/31 00:38:38;;;;;;;;;;;;;;;7.25;100.00;95473.63;1028438;28;19926;-74
2022/05/31 00:39:08;;;;;;;;;;;;;;;7.22;100.00;95473.34;1030341;28;19944;-76
2022/05/31 00:39:40;;;;;;;;;;;;;;;7.22;100.00;95473.34;1029046;28;19914;-75
2022/05/31 00:40:10;;;;;;;;;;;;;;;7.22;100.00;95468.91;1031237;28;19910;-74
2022/05/31 00:40:40;;;;;;;;;;;;;;;7.21;100.00;95471.72;1035041;28;20382;-74
2022/05/31 00:41:23;;;;;;;;;;;;;;;7.20;100.00;95468.34;1038833;28;20374;-74
2022/05/31 00:42:12;;;;;;;;;;;;;;;7.18;100.00;95462.59;1041198;28;19920;-75
2022/05/31 00:42:47;;;;;;;;;;;;;;;7.19;100.00;95469.38;1039068;28;20312;-74
2022/05/31 00:43:22;;;;;;;;;;;;;;;7.19;100.00;95466.78;1030729;28;19906;-74
2022/05/31 00:44:13;;;;;;;;;;;;;;;7.20;100.00;95470.94;1026592;28;19914;-73
2022/05/31 00:44:44;;;;;;;;;;;;;;;7.19;100.00;95466.00;1034815;28;20441;-74
2022/05/31 00:45:14;;;;;;;;;;;;;;;7.18;100.00;95467.81;1039727;28;19937;-75
2022/05/31 00:46:02;;;;;;;;;;;;;;;7.18;100.00;95467.03;1041602;28;20617;-74
2022/05/31 00:46:37;;;;;;;;;;;;;;;7.17;100.00;95465.44;1042225;28;19967;-74
2022/05/31 00:47:08;;;;;;;;;;;;;;;7.16;100.00;95469.88;1033423;28;20014;-74
2022/05/31 00:47:38;;;;;;;;;;;;;;;7.16;100.00;95464.66;1029849;28;20378;-74
2022/05/31 00:48:13;;;;;;;;;;;;;;;7.15;100.00;95464.91;1020227;29;19914;-75
2022/05/31 00:48:47;;;;;;;;;;;;;;;7.14;100.00;95458.88;1026751;28;19910;-73
2022/05/31 00:49:36;;;;;;;;;;;;;;;7.15;100.00;95462.31;1027718;28;19906;-74
2022/05/31 00:50:07;;;;;;;;;;;;;;;7.16;100.00;95464.66;1033110;28;19910;-74
2022/05/31 00:50:39;;;;;;;;;;;;;;;7.16;100.00;95463.88;1034622;28;19917;-74
2022/05/31 00:51:13;;;;;;;;;;;;;;;7.16;100.00;95461.28;1031600;28;20005;-74
2022/05/31 00:51:44;;;;;;;;;;;;;;;7.15;100.00;95465.69;1031066;28;19913;-75
2022/05/31 00:52:17;;;;;;;;;;;;;;;7.13;100.00;95459.94;1031510;28;19909;-74
2022/05/31 00:52:48;;;;;;;;;;;;;;;7.14;100.00;95458.09;1034572;28;19953;-74
2022/05/31 00:53:19;;;;;;;;;;;;;;;7.13;100.00;95462.53;1038810;28;19943;-75
2022/05/31 00:53:51;;;;;;;;;;;;;;;7.13;100.00;95459.94;1038099;28;19909;-74
2022/05/31 00:54:22;;;;;;;;;;;;;;;7.12;100.00;95465.41;1034958;28;20441;-73
2022/05/31 00:55:00;;;;;;;;;;;;;;;7.10;100.00;95463.03;1030701;28;19910;-74
2022/05/31 00:55:35;;;;;;;;;;;;;;;7.08;100.00;95463.28;1030669;28;19989;-74
2022/05/31 00:56:13;;;;;;;;;;;;;;;7.07;100.00;95466.13;1032677;28;19960;-74
2022/05/31 00:56:43;;;;;;;;;;;;;;;7.06;100.00;95467.97;1041668;28;20337;-75
2022/05/31 00:57:13;;;;;;;;;;;;;;;7.04;100.00;95458.78;1036291;28;20047;-73
2022/05/31 00:57:46;;;;;;;;;;;;;;;7.04;100.00;95466.63;1026862;28;19910;-74
2022/05/31 00:58:34;;;;;;;;;;;;;;;7.01;100.00;95467.94;1030868;28;19906;-74
2022/05/31 00:59:06;;;;;;;;;;;;;;;7.00;100.00;95466.31;1022778;29;19910;-74
2022/05/31 00:59:37;;;;;;;;;;;;;;;6.99;100.00;95463.97;1030774;28;19928;-74
2022/05/31 01:00:12;;;;;;;;;;;;;;;6.96;100.00;95460.03;1030169;28;19906;-74
2022/05/31 01:00:42;;;;;;;;;;;;;;;6.96;100.00;95459.25;1034320;28;20609;-74
2022/05/31 01:01:14;;;;;;;;;;;;;;;6.95;100.00;95457.69;1038405;28;19976;-73
2022/05/31 01:01:47;;;;;;;;;;;;;;;6.95;100.00;95462.91;1029933;28;20502;-74
2022/05/31 01:02:17;;;;;;;;;;;;;;;6.92;100.00;95452.97;1024958;28;20321;-74
2022/05/31 01:02:49;;;;;;;;;;;;;;;6.92;100.00;95452.97;1030693;28;19949;-75
2022/05/31 01:03:20;;;;;;;;;;;;;;;6.91;100.00;95456.56;1034265;28;19961;-74
2022/05/31 01:03:50;;;;;;;;;;;;;;;6.90;100.00;95465.44;1030035;28;19914;-73
2022/05/31 01:04:30;;;;;;;;;;;;;;;6.88;100.00;95467.53;1022350;29;20396;-74
2022/05/31 01:05:01;;;;;;;;;;;;;;;6.88;100.00;95457.88;1030654;28;19932;-75
2022/05/31 01:05:31;;;;;;;;;;;;;;;6.87;100.00;95458.09;1030329;28;20318;-74
2022/05/31 01:06:01;;;;;;;;;;;;;;;6.87;100.00;95461.50;1033161;28;19937;-73
2022/05/31 01:06:32;;;;;;;;;;;;;;;6.86;100.00;95465.16;1034694;28;19912;-74
2022/05/31 01:07:03;;;;;;;;;;;;;;;6.84;100.00;95457.59;1036803;28;20696;-74
2022/05/31 01:07:33;;;;;;;;;;;;;;;6.82;100.00;95459.63;1034585;28;19909;-75
2022/05/31 01:08:03;;;;;;;;;;;;;;;6.83;100.00;95458.59;1030942;28;19941;-74
2022/05/31 01:08:36;;;;;;;;;;;;;;;6.81;100.00;95458.06;1030094;28;19988;-74
2022/05/31 01:09:07;;;;;;;;;;;;;;;6.81;100.00;95458.06;1034795;28;19930;-74
2022/05/31 01:09:40;;;;;;;;;;;;;;;6.81;100.00;95452.84;1035204;28;20350;-74
2022/05/31 01:10:12;;;;;;;;;;;;;;;6.82;100.00;95459.63;1040539;28;20000;-74
2022/05/31 01:10:42;;;;;;;;;;;;;;;6.82;100.00;95459.63;1039099;28;20270;-74
2022/05/31 01:11:13;;;;;;;;;;;;;;;6.80;100.00;95456.47;1035543;28;19901;-74
2022/05/31 01:11:44;;;;;;;;;;;;;;;6.81;100.00;95463.28;1033091;28;19902;-74
2022/05/31 01:12:14;;;;;;;;;;;;;;;6.80;100.00;95455.69;1028144;28;19918;-73
2022/05/31 01:12:45;;;;;;;;;;;;;;;6.81;100.00;95463.28;1030320;28;19907;-74
2022/05/31 01:13:16;;;;;;;;;;;;;;;6.83;100.00;95463.81;1028756;28;19987;-74
2022/05/31 01:13:49;;;;;;;;;;;;;;;6.80;100.00;95459.09;1030128;28;19949;-75
2022/05/31 01:14:19;;;;;;;;;;;;;;;6.81;100.00;95458.06;1027586;28;19926;-74
2022/05/31 01:14:49;;;;;;;;;;;;;;;6.82;100.00;95454.44;1027438;28;20293;-74
2022/05/31 01:15:20;;;;;;;;;;;;;;;6.83;100.00;95456.00;1021949;29;19911;-73
2022/05/31 01:15:50;;;;;;;;;;;;;;;6.82;100.00;95458.84;1019941;29;19958;-74
2022/05/31 01:16:20;;;;;;;;;;;;;;;6.83;100.00;95458.59;1032112;28;19913;-74
2022/05/31 01:16:51;;;;;;;;;;;;;;;6.84;100.00;95465.41;1023697;29;20498;-75
2022/05/31 01:17:22;;;;;;;;;;;;;;;6.84;100.00;95454.16;1026010;28;19914;-74
2022/05/31 01:17:53;;;;;;;;;;;;;;;6.84;100.00;95456.78;1027783;28;19910;-74
2022/05/31 01:18:23;;;;;;;;;;;;;;;6.84;100.00;95462.81;1024207;28;20364;-74
2022/05/31 01:18:53;;;;;;;;;;;;;;;6.84;100.00;95462.81;1031291;28;19933;-74
2022/05/31 01:20:17;;;;;;;;;;;;;;;6.84;100.00;95449.75;1033490;28;19910;-74
2022/05/31 01:20:47;;;;;;;;;;;;;;;6.83;100.00;95450.78;1035438;28;19913;-74
2022/05/31 01:21:18;;;;;;;;;;;;;;;6.84;100.00;95457.59;1035579;28;20406;-74
2022/05/31 01:21:51;;;;;;;;;;;;;;;6.86;100.00;95459.94;1032898;28;19910;-74
2022/05/31 01:22:23;;;;;;;;;;;;;;;6.84;100.00;95452.38;1029524;28;20394;-73
2022/05/31 01:22:54;;;;;;;;;;;;;;;6.85;100.00;95453.16;1027069;28;19918;-73
2022/05/31 01:23:28;;;;;;;;;;;;;;;6.85;100.00;95461.75;1028398;28;20300;-74
2022/05/31 01:24:01;;;;;;;;;;;;;;;6.85;100.00;95453.16;1027876;28;19915;-74
2022/05/31 01:24:32;;;;;;;;;;;;;;;6.86;100.00;95459.94;1030990;28;19909;-73
2022/05/31 01:25:05;;;;;;;;;;;;;;;6.87;100.00;95451.06;1034418;28;20194;-74
2022/05/31 01:25:45;;;;;;;;;;;;;;;6.89;100.00;95451.63;1030177;28;20375;-74
2022/05/31 01:26:21;;;;;;;;;;;;;;;6.90;100.00;95452.41;1031287;28;19910;-74
2022/05/31 01:26:53;;;;;;;;;;;;;;;6.89;100.00;95453.44;1023499;29;19907;-74
2022/05/31 01:27:35;;;;;;;;;;;;;;;6.90;100.00;95455.00;1023185;28;19920;-74
2022/05/31 01:28:10;;;;;;;;;;;;;;;6.84;100.00;95444.53;1022288;28;19915;-74
2022/05/31 01:28:46;;;;;;;;;;;;;;;6.91;100.00;95451.38;1031265;28;19910;-74
2022/05/31 01:29:19;;;;;;;;;;;;;;;6.91;100.00;95451.38;1034073;28;19901;-74
2022/05/31 01:29:49;;;;;;;;;;;;;;;6.89;100.00;95451.63;1028732;28;20416;-73
2022/05/31 01:30:20;;;;;;;;;;;;;;;6.90;100.00;95452.41;1031198;28;19914;-74
2022/05/31 01:31:16;;;;;;;;;;;;;;;6.90;100.00;95449.78;1019390;29;19918;-74
2022/05/31 01:31:59;;;;;;;;;;;;;;;6.90;100.00;95457.63;1023382;28;20012;-74
2022/05/31 01:32:30;;;;;;;;;;;;;;;6.87;100.00;95453.69;1029192;28;19906;-73
2022/05/31 01:33:02;;;;;;;;;;;;;;;6.86;100.00;95449.50;1035665;28;20372;-74
2022/05/31 01:34:07;;;;;;;;;;;;;;;6.86;100.00;95446.91;1033251;28;20350;-73
2022/05/31 01:34:39;;;;;;;;;;;;;;;6.85;100.00;95451.31;1025982;28;19911;-74
2022/05/31 01:35:11;;;;;;;;;;;;;;;6.84;100.00;95448.94;1029847;28;19912;-75
2022/05/31 01:35:42;;;;;;;;;;;;;;;6.83;100.00;95448.16;1026941;28;19949;-74
2022/05/31 01:36:25;;;;;;;;;;;;;;;6.82;100.00;95446.59;1025788;28;19910;-74
2022/05/31 01:36:56;;;;;;;;;;;;;;;6.80;100.00;95443.44;1025937;28;19970;-74
2022/05/31 01:37:34;;;;;;;;;;;;;;;6.79;100.00;95441.88;1031894;28;20390;-74
2022/05/31 01:38:09;;;;;;;;;;;;;;;6.79;100.00;95444.47;1032484;28;19910;-73
2022/05/31 01:38:42;;;;;;;;;;;;;;;6.79;100.00;95444.47;1032850;28;19910;-74
2022/05/31 01:39:39;;;;;;;;;;;;;;;6.79;100.00;95446.31;1027100;28;20008;-74
2022/05/31 01:40:11;;;;;;;;;;;;;;;6.77;100.00;95443.97;1018524;29;19919;-74
2022/05/31 01:40:59;;;;;;;;;;;;;;;6.77;100.00;95448.38;1023131;28;19911;-74
2022/05/31 01:41:37;;;;;;;;;;;;;;;6.77;100.00;95445.75;1025751;28;19910;-74
2022/05/31 01:42:24;;;;;;;;;;;;;;;6.77;100.00;95450.97;1023074;29;20009;-74
2022/05/31 01:42:54;;;;;;;;;;;;;;;6.76;100.00;95447.56;1026503;28;20380;-74
2022/05/31 01:43:24;;;;;;;;;;;;;;;6.76;100.00;95450.19;1026507;28;19915;-74
2022/05/31 01:43:55;;;;;;;;;;;;;;;6.76;100.00;95450.19;1029301;28;19962;-74
2022/05/31 01:44:29;;;;;;;;;;;;;;;6.77;100.00;95446.56;1027435;28;20029;-74
2022/05/31 01:45:05;;;;;;;;;;;;;;;6.79;100.00;95443.69;1030785;28;19910;-74
2022/05/31 01:45:58;;;;;;;;;;;;;;;6.79;100.00;95444.47;1031259;28;19997;-74
2022/05/31 01:46:30;;;;;;;;;;;;;;;6.79;100.00;95441.88;1032147;28;19905;-74
2022/05/31 01:47:02;;;;;;;;;;;;;;;6.80;100.00;95435.63;1033165;28;20386;-74
2022/05/31 01:47:33;;;;;;;;;;;;;;;6.80;100.00;95440.06;1031881;28;19948;-74
2022/05/31 01:48:04;;;;;;;;;;;;;;;6.80;100.00;95440.84;1031536;28;19910;-73
2022/05/31 01:48:34;;;;;;;;;;;;;;;6.80;100.00;95438.22;1025214;28;19996;-74
2022/05/31 01:49:06;;;;;;;;;;;;;;;6.81;100.00;95432.00;1027320;28;19906;-74
2022/05/31 01:49:38;;;;;;;;;;;;;;;6.83;100.00;95435.13;1030779;28;19909;-74
2022/05/31 01:50:09;;;;;;;;;;;;;;;6.82;100.00;95438.00;1027920;28;19921;-74
2022/05/31 01:50:39;;;;;;;;;;;;;;;6.83;100.00;95437.75;1033292;28;19912;-74
2022/05/31 01:51:10;;;;;;;;;;;;;;;6.83;100.00;95435.13;1035230;28;19909;-73
2022/05/31 01:51:41;;;;;;;;;;;;;;;6.84;100.00;95439.34;1034881;28;19940;-74
2022/05/31 01:52:11;;;;;;;;;;;;;;;6.84;100.00;95438.53;1035277;28;20056;-74
2022/05/31 01:52:41;;;;;;;;;;;;;;;6.85;100.00;95443.50;1039725;28;19909;-74
2022/05/31 01:53:11;;;;;;;;;;;;;;;6.85;100.00;95443.50;1024813;28;20005;-74
2022/05/31 01:53:42;;;;;;;;;;;;;;;6.87;100.00;95439.84;1023438;29;19913;-73
2022/05/31 01:54:13;;;;;;;;;;;;;;;6.85;100.00;95451.31;1027184;28;19906;-73
2022/05/31 01:54:43;;;;;;;;;;;;;;;6.86;100.00;95441.69;1029662;28;20470;-74
2022/05/31 01:55:14;;;;;;;;;;;;;;;6.87;100.00;95445.06;1035398;28;19914;-74
2022/05/31 01:55:44;;;;;;;;;;;;;;;6.87;100.00;95439.84;1030698;28;19906;-74
2022/05/31 01:56:15;;;;;;;;;;;;;;;6.85;100.00;95442.72;1034855;28;19951;-74
2022/05/31 01:56:46;;;;;;;;;;;;;;;6.85;100.00;95442.72;1031436;28;19956;-74
2022/05/31 01:57:17;;;;;;;;;;;;;;;6.85;100.00;95442.72;1027161;28;19914;-74
2022/05/31 01:57:48;;;;;;;;;;;;;;;6.83;100.00;95440.34;1026324;28;19913;-74
2022/05/31 01:58:22;;;;;;;;;;;;;;;6.82;100.00;95441.38;1027931;28;20299;-74
2022/05/31 01:58:53;;;;;;;;;;;;;;;6.81;100.00;95444.25;1024287;28;19933;-74
2022/05/31 01:59:23;;;;;;;;;;;;;;;6.82;100.00;95438.78;1024318;28;20424;-74
2022/05/31 01:59:55;;;;;;;;;;;;;;;6.82;100.00;95443.22;1028478;28;20430;-74
2022/05/31 02:00:26;;;;;;;;;;;;;;;6.83;100.00;95444.78;1028099;28;19961;-73
2022/05/31 02:00:57;;;;;;;;;;;;;;;6.81;100.00;95446.88;1032118;28;19972;-74
2022/05/31 02:01:28;;;;;;;;;;;;;;;6.81;100.00;95445.03;1027172;28;19910;-74
2022/05/31 02:01:58;;;;;;;;;;;;;;;6.80;100.00;95446.03;1027505;28;19910;-74
2022/05/31 02:02:29;;;;;;;;;;;;;;;6.81;100.00;95436.44;1031141;28;19992;-73
2022/05/31 02:02:59;;;;;;;;;;;;;;;6.82;100.00;95448.44;1029592;28;19950;-74
2022/05/31 02:03:29;;;;;;;;;;;;;;;6.81;100.00;95447.66;1031124;28;19914;-74
2022/05/31 02:04:00;;;;;;;;;;;;;;;6.82;100.00;95448.44;1028144;28;20449;-74
2022/05/31 02:04:30;;;;;;;;;;;;;;;6.82;100.00;95451.81;1027242;28;19913;-74
2022/05/31 02:05:00;;;;;;;;;;;;;;;6.82;100.00;95448.44;1023774;29;19906;-74
2022/05/31 02:05:31;;;;;;;;;;;;;;;6.80;100.00;95453.09;1024412;28;19997;-74
2022/05/31 02:06:01;;;;;;;;;;;;;;;6.79;100.00;95444.47;1023989;28;20288;-74
2022/05/31 02:06:35;;;;;;;;;;;;;;;6.78;100.00;95442.91;1023979;28;19918;-74
2022/05/31 02:07:12;;;;;;;;;;;;;;;6.76;100.00;95444.97;1034398;28;19936;-74
2022/05/31 02:07:42;;;;;;;;;;;;;;;6.77;100.00;95441.34;1029905;28;19914;-74
2022/05/31 02:08:12;;;;;;;;;;;;;;;6.78;100.00;95450.75;1030589;28;19929;-74
2022/05/31 02:08:42;;;;;;;;;;;;;;;6.77;100.00;95441.34;1028610;28;19961;-73
2022/05/31 02:09:13;;;;;;;;;;;;;;;6.77;100.00;95443.97;1027993;28;19914;-74
2022/05/31 02:09:44;;;;;;;;;;;;;;;6.78;100.00;95453.34;1019684;29;20392;-74
2022/05/31 02:10:15;;;;;;;;;;;;;;;6.76;100.00;95455.41;1027471;28;20354;-73
2022/05/31 02:10:46;;;;;;;;;;;;;;;6.77;100.00;95453.56;1027682;28;19914;-74
2022/05/31 02:11:16;;;;;;;;;;;;;;;6.77;100.00;95449.16;1031310;28;19921;-74
2022/05/31 02:11:46;;;;;;;;;;;;;;;6.78;100.00;95448.13;1033747;28;20318;-74
2022/05/31 02:12:17;;;;;;;;;;;;;;;6.78;100.00;95455.94;1034797;28;20351;-73
2022/05/31 02:12:47;;;;;;;;;;;;;;;6.77;100.00;95458.78;1035782;28;20374;-74
2022/05/31 02:13:17;;;;;;;;;;;;;;;6.77;100.00;95456.19;1033245;28;19917;-74
2022/05/31 02:13:48;;;;;;;;;;;;;;;6.74;100.00;95449.66;1028984;28;19917;-74
2022/05/31 02:14:18;;;;;;;;;;;;;;;6.75;100.00;95455.66;1027722;28;20396;-74
2022/05/31 02:14:52;;;;;;;;;;;;;;;6.74;100.00;95460.09;1025160;28;19981;-74
2022/05/31 02:15:22;;;;;;;;;;;;;;;6.73;100.00;95455.09;1030980;28;20018;-73
2022/05/31 02:15:54;;;;;;;;;;;;;;;6.74;100.00;95456.66;1036057;28;20428;-75
2022/05/31 02:16:25;;;;;;;;;;;;;;;6.74;100.00;95456.66;1036028;28;20009;-74
2022/05/31 02:16:55;;;;;;;;;;;;;;;6.72;100.00;95459.53;1039754;28;19968;-74
2022/05/31 02:17:28;;;;;;;;;;;;;;;6.72;100.00;95454.31;1033198;28;21296;-74
2022/05/31 02:18:01;;;;;;;;;;;;;;;6.72;100.00;95459.53;1033323;28;19940;-74
2022/05/31 02:19:25;;;;;;;;;;;;;;;6.70;100.00;95464.19;1037807;28;20326;-74
2022/05/31 02:19:55;;;;;;;;;;;;;;;6.69;100.00;95460.03;1043452;28;19939;-74
2022/05/31 02:20:25;;;;;;;;;;;;;;;6.69;100.00;95459.25;1035839;28;20371;-74
2022/05/31 02:20:56;;;;;;;;;;;;;;;6.68;100.00;95466.28;1027764;28;19953;-74
2022/05/31 02:21:35;;;;;;;;;;;;;;;6.67;100.00;95467.28;1021742;28;19934;-73
2022/05/31 02:22:07;;;;;;;;;;;;;;;6.67;100.00;95462.06;1019599;29;19949;-74
2022/05/31 02:22:38;;;;;;;;;;;;;;;6.66;100.00;95463.13;1023753;28;20364;-74
2022/05/31 02:23:08;;;;;;;;;;;;;;;6.64;100.00;95462.59;1029476;28;19922;-74
2022/05/31 02:23:38;;;;;;;;;;;;;;;6.64;100.00;95467.00;1025274;28;19958;-74
2022/05/31 02:24:13;;;;;;;;;;;;;;;6.64;100.00;95467.00;1031202;28;19975;-75
2022/05/31 02:24:44;;;;;;;;;;;;;;;6.64;100.00;95473.00;1032499;28;20017;-74
2022/05/31 02:25:14;;;;;;;;;;;;;;;6.63;100.00;95470.63;1031611;28;19921;-73
2022/05/31 02:25:45;;;;;;;;;;;;;;;6.62;100.00;95475.06;1035797;28;19910;-74
2022/05/31 02:26:15;;;;;;;;;;;;;;;6.63;100.00;95476.63;1031546;28;19949;-74
2022/05/31 02:26:45;;;;;;;;;;;;;;;6.64;100.00;95472.19;1031822;28;19910;-74
2022/05/31 02:27:16;;;;;;;;;;;;;;;6.63;100.00;95468.81;1035779;28;20302;-74
2022/05/31 02:27:46;;;;;;;;;;;;;;;6.63;100.00;95474.03;1035883;28;20386;-73
2022/05/31 02:28:16;;;;;;;;;;;;;;;6.62;100.00;95467.25;1039812;28;19917;-74
2022/05/31 02:28:47;;;;;;;;;;;;;;;6.61;100.00;95471.69;1039787;28;19996;-74
2022/05/31 02:29:21;;;;;;;;;;;;;;;6.62;100.00;95472.47;1034803;28;20303;-74
2022/05/31 02:29:51;;;;;;;;;;;;;;;6.60;100.00;95477.91;1035692;28;19909;-74
2022/05/31 02:30:22;;;;;;;;;;;;;;;6.60;100.00;95474.50;1031698;28;20000;-74
2022/05/31 02:30:52;;;;;;;;;;;;;;;6.59;100.00;95476.34;1027398;28;19919;-73
2022/05/31 02:31:23;;;;;;;;;;;;;;;6.60;100.00;95474.50;1029878;28;19969;-74
2022/05/31 02:31:53;;;;;;;;;;;;;;;6.60;100.00;95471.91;1031086;28;19964;-74
2022/05/31 02:32:23;;;;;;;;;;;;;;;6.59;100.00;95473.72;1035698;28;19921;-74
2022/05/31 02:32:54;;;;;;;;;;;;;;;6.58;100.00;95481.81;1031811;28;20346;-74
2022/05/31 02:33:24;;;;;;;;;;;;;;;6.58;100.00;95484.41;1031819;28;19914;-74
2022/05/31 02:33:54;;;;;;;;;;;;;;;6.56;100.00;95481.25;1036655;28;19945;-74
2022/05/31 02:34:26;;;;;;;;;;;;;;;6.56;100.00;95478.66;1033302;28;19918;-73
2022/05/31 02:34:57;;;;;;;;;;;;;;;6.56;100.00;95481.25;1032848;28;20291;-74
2022/05/31 02:35:27;;;;;;;;;;;;;;;6.56;100.00;95486.47;1035974;28;19918;-74
2022/05/31 02:35:57;;;;;;;;;;;;;;;6.55;100.00;95475.25;1035726;28;20016;-74
2022/05/31 02:36:28;;;;;;;;;;;;;;;6.54;100.00;95483.31;1035594;28;19934;-74
2022/05/31 02:36:58;;;;;;;;;;;;;;;6.54;100.00;95483.31;1031758;28;19914;-74
2022/05/31 02:37:28;;;;;;;;;;;;;;;6.51;100.00;95483.81;1031987;28;19929;-74
2022/05/31 02:37:59;;;;;;;;;;;;;;;6.50;100.00;95477.78;1035875;28;19925;-74
2022/05/31 02:38:29;;;;;;;;;;;;;;;6.48;100.00;95485.06;1039742;28;19987;-74
2022/05/31 02:39:00;;;;;;;;;;;;;;;6.48;100.00;95486.91;1039737;28;19923;-74
2022/05/31 02:39:30;;;;;;;;;;;;;;;6.47;100.00;95480.91;1032560;28;20326;-74
2022/05/31 02:40:00;;;;;;;;;;;;;;;6.47;100.00;95483.50;1030892;28;19913;-74
2022/05/31 02:40:31;;;;;;;;;;;;;;;6.47;100.00;95485.31;1031474;28;19913;-74
2022/05/31 02:41:01;;;;;;;;;;;;;;;6.45;100.00;95485.56;1027586;28;19921;-74
2022/05/31 02:41:32;;;;;;;;;;;;;;;6.45;100.00;95490.00;1026870;28;19918;-74
2022/05/31 02:42:03;;;;;;;;;;;;;;;6.45;100.00;95482.16;1031876;28;19913;-74
2022/05/31 02:42:39;;;;;;;;;;;;;;;6.43;100.00;95482.41;1034535;28;19963;-74
2022/05/31 02:43:09;;;;;;;;;;;;;;;6.44;100.00;95483.19;1032188;28;19929;-74
2022/05/31 02:43:40;;;;;;;;;;;;;;;6.42;100.00;95478.22;1035688;28;19922;-74
2022/05/31 02:44:10;;;;;;;;;;;;;;;6.42;100.00;95480.81;1035324;28;19913;-74
2022/05/31 02:44:40;;;;;;;;;;;;;;;6.42;100.00;95477.44;1035655;28;19913;-74
2022/05/31 02:45:11;;;;;;;;;;;;;;;6.43;100.00;95473.78;1036179;28;19921;-74
2022/05/31 02:45:41;;;;;;;;;;;;;;;6.41;100.00;95475.88;1027710;28;19957;-73
2022/05/31 02:46:12;;;;;;;;;;;;;;;6.41;100.00;95478.47;1023752;28;19968;-74
2022/05/31 02:46:42;;;;;;;;;;;;;;;6.41;100.00;95478.47;1030037;28;19914;-74
2022/05/31 02:47:12;;;;;;;;;;;;;;;6.40;100.00;95471.66;1034671;28;19928;-74
2022/05/31 02:47:43;;;;;;;;;;;;;;;6.39;100.00;95470.88;1037978;28;20373;-73
2022/05/31 02:48:13;;;;;;;;;;;;;;;6.40;100.00;95476.88;1039510;28;19943;-74
2022/05/31 02:48:43;;;;;;;;;;;;;;;6.39;100.00;95478.72;1033688;28;19913;-74
2022/05/31 02:49:14;;;;;;;;;;;;;;;6.37;100.00;95473.75;1035046;28;19935;-74
2022/05/31 02:49:44;;;;;;;;;;;;;;;6.37;100.00;95478.16;1029330;28;19913;-73